Time,TemperatureF,DewpointF,PressureIn,WindDirection,WindDirectionDegrees,WindSpeedMPH,WindSpeedGustMPH,Humidity,HourlyPrecipIn,Conditions,Clouds,dailyrainin,SolarRadiationWatts/m^2,SoftwareType,DateUTC
2013-06-28 00:01:00,61.0,59.0,-100.00,North,353,3.0,9.0,93,0.00,,,0.00,13.000000,,2013-06-28 07:01:00,
2013-06-28 00:11:00,61.0,59.0,-100.00,North,353,3.0,9.0,93,0.00,,,0.00,13.000000,,2013-06-28 07:11:00,
2013-06-28 00:43:00,62.0,60.0,-100.00,North,357,4.0,10.0,92,0.00,,,-99.99,13.000000,,2013-06-28 07:43:00,
2013-06-28 00:52:00,62.0,60.0,-100.00,North,357,4.0,10.0,92,0.00,,,-99.99,13.000000,,2013-06-28 07:52:00,
2013-06-28 01:01:00,62.0,60.0,-100.00,North,357,4.0,10.0,92,0.00,,,-99.99,13.000000,,2013-06-28 08:01:00,
2013-06-28 01:11:00,62.0,60.0,-100.00,North,357,4.0,10.0,92,0.00,,,-99.99,13.000000,,2013-06-28 08:11:00,
2013-06-28 01:43:00,60.0,58.0,-100.00,North,359,4.0,11.0,93,0.00,,,0.00,13.000000,,2013-06-28 08:43:00,
2013-06-28 01:52:00,60.0,58.0,-100.00,North,359,4.0,11.0,93,0.00,,,0.00,13.000000,,2013-06-28 08:52:00,
2013-06-28 02:02:00,60.0,58.0,-100.00,North,359,4.0,11.0,93,0.00,,,0.00,13.000000,,2013-06-28 09:02:00,
2013-06-28 02:11:00,60.0,58.0,-100.00,North,359,4.0,11.0,93,0.00,,,0.00,13.000000,,2013-06-28 09:11:00,
2013-06-28 02:42:00,59.0,57.0,-100.00,North,355,1.0,8.0,94,0.00,,,0.00,12.000000,,2013-06-28 09:42:00,
2013-06-28 02:52:00,59.0,57.0,-100.00,North,355,1.0,8.0,94,0.00,,,0.00,12.000000,,2013-06-28 09:52:00,
2013-06-28 03:02:00,59.0,57.0,-100.00,North,355,1.0,8.0,94,0.00,,,0.00,12.000000,,2013-06-28 10:02:00,
2013-06-28 03:11:00,59.0,57.0,-100.00,North,355,1.0,8.0,94,0.00,,,0.00,12.000000,,2013-06-28 10:11:00,
2013-06-28 03:42:00,61.0,60.0,-100.00,South,182,0.0,0.0,96,0.00,,,0.00,12.000000,,2013-06-28 10:42:00,
2013-06-28 03:52:00,61.0,60.0,-100.00,South,182,0.0,0.0,96,0.00,,,0.00,12.000000,,2013-06-28 10:52:00,
2013-06-28 04:01:00,61.0,60.0,-100.00,South,182,0.0,0.0,96,0.00,,,0.00,12.000000,,2013-06-28 11:01:00,
2013-06-28 04:11:00,61.0,60.0,-100.00,South,182,0.0,0.0,96,0.00,,,0.00,12.000000,,2013-06-28 11:11:00,
2013-06-28 04:34:00,60.0,59.0,-100.00,South,190,4.0,6.0,97,0.00,,,0.00,12.000000,,2013-06-28 11:34:00,
2013-06-28 04:43:00,60.0,59.0,-100.00,South,190,4.0,6.0,97,0.00,,,0.00,12.000000,,2013-06-28 11:43:00,
2013-06-28 04:53:00,60.0,59.0,-100.00,South,190,4.0,6.0,97,0.00,,,0.00,12.000000,,2013-06-28 11:53:00,
2013-06-28 05:01:00,60.0,59.0,-100.00,South,190,4.0,6.0,97,0.00,,,0.00,12.000000,,2013-06-28 12:01:00,
2013-06-28 05:12:00,60.0,59.0,-100.00,South,190,4.0,6.0,97,0.00,,,0.00,12.000000,,2013-06-28 12:12:00,
2013-06-28 05:34:00,60.0,59.0,-100.00,South,187,3.0,7.0,95,0.00,,,0.00,12.000000,,2013-06-28 12:34:00,
2013-06-28 05:43:00,60.0,59.0,-100.00,South,187,3.0,7.0,95,0.00,,,0.00,12.000000,,2013-06-28 12:43:00,
2013-06-28 05:52:00,60.0,59.0,-100.00,South,187,3.0,7.0,95,0.00,,,0.00,12.000000,,2013-06-28 12:52:00,
2013-06-28 06:01:00,60.0,59.0,-100.00,South,187,3.0,7.0,95,0.00,,,0.00,12.000000,,2013-06-28 13:01:00,
2013-06-28 06:11:00,60.0,59.0,-100.00,South,187,3.0,7.0,95,0.00,,,0.00,12.000000,,2013-06-28 13:11:00,
2013-06-28 06:43:00,61.0,60.0,-100.00,South,191,2.0,5.0,95,0.00,,,0.00,21.000000,,2013-06-28 13:43:00,
2013-06-28 06:53:00,61.0,60.0,-100.00,South,191,2.0,5.0,95,0.00,,,0.00,21.000000,,2013-06-28 13:53:00,
2013-06-28 07:01:00,61.0,60.0,-100.00,South,191,2.0,5.0,95,0.00,,,0.00,21.000000,,2013-06-28 14:01:00,
2013-06-28 07:11:00,61.0,60.0,-100.00,South,191,2.0,5.0,95,0.00,,,0.00,21.000000,,2013-06-28 14:11:00,
2013-06-28 10:44:00,79.0,65.0,-100.00,South,190,2.0,6.0,63,0.00,,,0.00,846.000000,,2013-06-28 17:44:00,
2013-06-28 10:52:00,79.0,65.0,-100.00,South,190,2.0,6.0,63,0.00,,,0.00,846.000000,,2013-06-28 17:52:00,
2013-06-28 11:01:00,79.0,65.0,-100.00,South,190,2.0,6.0,63,0.00,,,0.00,846.000000,,2013-06-28 18:01:00,
2013-06-28 11:11:00,79.0,65.0,-100.00,South,190,2.0,6.0,63,0.00,,,0.00,846.000000,,2013-06-28 18:11:00,
2013-06-28 11:43:00,84.0,65.0,-100.00,South,178,1.0,7.0,53,0.00,,,0.00,1051.000000,,2013-06-28 18:43:00,
2013-06-28 11:52:00,84.0,65.0,-100.00,South,178,1.0,7.0,53,0.00,,,0.00,1051.000000,,2013-06-28 18:52:00,
2013-06-28 12:01:00,84.0,65.0,-100.00,South,178,1.0,7.0,53,0.00,,,0.00,1051.000000,,2013-06-28 19:01:00,
2013-06-28 12:11:00,84.0,65.0,-100.00,South,178,1.0,7.0,53,0.00,,,0.00,1051.000000,,2013-06-28 19:11:00,
2013-06-28 12:43:00,83.0,68.0,-100.00,NE,44,3.0,8.0,60,0.00,,,0.00,1209.000000,,2013-06-28 19:43:00,
2013-06-28 12:53:00,83.0,68.0,-100.00,NE,44,3.0,8.0,60,0.00,,,0.00,1209.000000,,2013-06-28 19:53:00,
2013-06-28 13:02:00,83.0,68.0,-100.00,NE,44,3.0,8.0,60,0.00,,,0.00,1209.000000,,2013-06-28 20:02:00,
2013-06-28 13:11:00,83.0,68.0,-100.00,NE,44,3.0,8.0,60,0.00,,,0.00,1209.000000,,2013-06-28 20:11:00,
2013-06-28 13:43:00,84.0,69.0,-100.00,SSW,195,2.0,9.0,60,0.00,,,0.00,1294.000000,,2013-06-28 20:43:00,
2013-06-28 13:52:00,84.0,69.0,-100.00,SSW,195,2.0,9.0,60,0.00,,,0.00,1294.000000,,2013-06-28 20:52:00,
2013-06-28 14:01:00,84.0,69.0,-100.00,SSW,195,2.0,9.0,60,0.00,,,0.00,1294.000000,,2013-06-28 21:01:00,
2013-06-28 14:11:00,84.0,69.0,-100.00,SSW,195,2.0,9.0,60,0.00,,,0.00,1294.000000,,2013-06-28 21:11:00,
2013-06-28 14:43:00,84.0,64.0,-100.00,SE,131,3.0,9.0,51,0.00,,,0.00,1308.000000,,2013-06-28 21:43:00,
2013-06-28 14:53:00,84.0,64.0,-100.00,SE,131,3.0,9.0,51,0.00,,,0.00,1308.000000,,2013-06-28 21:53:00,
2013-06-28 15:01:00,84.0,64.0,-100.00,SE,131,3.0,9.0,51,0.00,,,0.00,1308.000000,,2013-06-28 22:01:00,
2013-06-28 15:11:00,84.0,64.0,-100.00,SE,131,3.0,9.0,51,0.00,,,0.00,1308.000000,,2013-06-28 22:11:00,
2013-06-28 15:34:00,88.0,61.0,-100.00,ENE,68,1.0,9.0,41,0.00,,,0.00,1249.000000,,2013-06-28 22:34:00,
2013-06-28 15:43:00,88.0,61.0,-100.00,ENE,68,1.0,9.0,41,0.00,,,0.00,1249.000000,,2013-06-28 22:43:00,
2013-06-28 15:52:00,88.0,61.0,-100.00,ENE,68,1.0,9.0,41,0.00,,,0.00,1249.000000,,2013-06-28 22:52:00,
2013-06-28 16:01:00,88.0,61.0,-100.00,ENE,68,1.0,9.0,41,0.00,,,0.00,1249.000000,,2013-06-28 23:01:00,
2013-06-28 16:11:00,88.0,61.0,-100.00,ENE,68,1.0,9.0,41,0.00,,,0.00,1249.000000,,2013-06-28 23:11:00,
2013-06-28 16:34:00,89.0,58.0,-100.00,NNW,345,1.0,7.0,35,0.00,,,0.00,1125.000000,,2013-06-28 23:34:00,
2013-06-28 16:43:00,89.0,58.0,-100.00,NNW,345,1.0,7.0,35,0.00,,,0.00,1125.000000,,2013-06-28 23:43:00,
2013-06-28 16:53:00,89.0,58.0,-100.00,NNW,345,1.0,7.0,35,0.00,,,0.00,1125.000000,,2013-06-28 23:53:00,
2013-06-28 17:01:00,89.0,58.0,-100.00,NNW,345,1.0,7.0,35,0.00,,,0.00,1125.000000,,2013-06-29 00:01:00,
2013-06-28 17:11:00,89.0,58.0,-100.00,NNW,345,1.0,7.0,35,0.00,,,0.00,1125.000000,,2013-06-29 00:11:00,
2013-06-28 18:32:00,86.0,62.0,-100.00,ENE,64,1.0,11.0,45,-99.99,,,0.00,683.000000,,2013-06-29 01:32:00,
2013-06-28 18:42:00,86.0,62.0,-100.00,ENE,64,1.0,11.0,45,-99.99,,,0.00,683.000000,,2013-06-29 01:42:00,
2013-06-28 18:51:00,86.0,62.0,-100.00,ENE,64,1.0,11.0,45,-99.99,,,0.00,683.000000,,2013-06-29 01:51:00,
2013-06-28 19:01:00,86.0,62.0,-100.00,ENE,64,1.0,11.0,45,-99.99,,,0.00,683.000000,,2013-06-29 02:01:00,
2013-06-28 19:10:00,86.0,62.0,-100.00,ENE,64,1.0,11.0,45,-99.99,,,0.00,683.000000,,2013-06-29 02:10:00,
2013-06-28 19:31:00,83.0,65.0,-100.00,NNW,348,1.0,9.0,54,0.00,,,0.00,431.000000,,2013-06-29 02:31:00,
2013-06-28 19:41:00,83.0,65.0,-100.00,NNW,348,1.0,9.0,54,0.00,,,0.00,431.000000,,2013-06-29 02:41:00,
2013-06-28 19:51:00,83.0,65.0,-100.00,NNW,348,1.0,9.0,54,0.00,,,0.00,431.000000,,2013-06-29 02:51:00,
2013-06-28 20:00:00,83.0,65.0,-100.00,NNW,348,1.0,9.0,54,0.00,,,0.00,431.000000,,2013-06-29 03:00:00,
2013-06-28 20:11:00,83.0,65.0,-100.00,NNW,348,1.0,9.0,54,0.00,,,0.00,431.000000,,2013-06-29 03:11:00,
2013-06-28 20:32:00,72.0,60.0,-100.00,WSW,237,2.0,9.0,65,0.00,,,0.00,63.000000,,2013-06-29 03:32:00,
2013-06-28 20:41:00,72.0,60.0,-100.00,WSW,237,2.0,9.0,65,0.00,,,0.00,63.000000,,2013-06-29 03:41:00,
2013-06-28 20:51:00,72.0,60.0,-100.00,WSW,237,2.0,9.0,65,0.00,,,0.00,63.000000,,2013-06-29 03:51:00,
2013-06-28 21:01:00,72.0,60.0,-100.00,WSW,237,2.0,9.0,65,0.00,,,0.00,63.000000,,2013-06-29 04:01:00,
2013-06-28 21:10:00,72.0,60.0,-100.00,WSW,237,2.0,9.0,65,0.00,,,0.00,63.000000,,2013-06-29 04:10:00,
2013-06-28 21:32:00,68.0,55.0,-100.00,WSW,244,2.0,9.0,63,0.00,,,0.00,30.000000,,2013-06-29 04:32:00,
2013-06-28 21:41:00,68.0,55.0,-100.00,WSW,244,2.0,9.0,63,0.00,,,0.00,30.000000,,2013-06-29 04:41:00,
2013-06-28 21:51:00,68.0,55.0,-100.00,WSW,244,2.0,9.0,63,0.00,,,0.00,30.000000,,2013-06-29 04:51:00,
2013-06-28 22:01:00,68.0,55.0,-100.00,WSW,244,2.0,9.0,63,0.00,,,0.00,30.000000,,2013-06-29 05:01:00,
2013-06-28 22:10:00,68.0,55.0,-100.00,WSW,244,2.0,9.0,63,0.00,,,0.00,30.000000,,2013-06-29 05:10:00,
2013-06-28 22:41:00,67.0,52.0,-100.00,WNW,298,0.0,8.0,59,0.00,,,0.00,17.000000,,2013-06-29 05:41:00,
2013-06-28 22:51:00,67.0,52.0,-100.00,WNW,298,0.0,8.0,59,0.00,,,0.00,17.000000,,2013-06-29 05:51:00,
2013-06-28 23:01:00,67.0,52.0,-100.00,WNW,298,0.0,8.0,59,0.00,,,0.00,17.000000,,2013-06-29 06:01:00,
2013-06-28 23:11:00,67.0,52.0,-100.00,WNW,298,0.0,8.0,59,0.00,,,0.00,17.000000,,2013-06-29 06:11:00,
2013-06-28 23:43:00,65.0,52.0,-100.00,NNW,333,1.0,8.0,62,0.00,,,0.00,15.000000,,2013-06-29 06:43:00,
2013-06-28 23:53:00,65.0,52.0,-100.00,NNW,333,1.0,8.0,62,0.00,,,0.00,15.000000,,2013-06-29 06:53:00,